Time;durP1;ratioP1;P1;durP2;ratioP2;P2;SDS_P1;SDS_P2;PMS_P1;PMS_P2;Temp;Humidity;BMP_temperature;BMP_pressure;BME280_temperature;BME280_humidity;BME280_pressure;Samples;Min_cycle;Max_cycle;Signal;HPM_P1;HPM_P2
2022/02/21 00:00:15;;;;;;;1.60;1.50;;;9.00;99.90;;;;;;5053634;28;20400;-68
2022/02/21 00:02:43;;;;;;;1.87;1.77;;;9.00;99.90;;;;;;5052605;28;20799;-69
2022/02/21 00:05:14;;;;;;;2.30;2.20;;;9.00;99.90;;;;;;5053128;28;20495;-68
2022/02/21 00:07:41;;;;;;;2.03;1.80;;;9.00;99.90;;;;;;5050712;28;20451;-70
2022/02/21 00:10:08;;;;;;;2.10;1.90;;;9.00;99.90;;;;;;5052024;28;20436;-68
2022/02/21 00:12:34;;;;;;;1.90;1.80;;;9.00;99.90;;;;;;5053198;28;20412;-69
2022/02/21 00:15:02;;;;;;;2.00;1.90;;;8.90;99.90;;;;;;5052221;28;20416;-69
2022/02/21 00:17:28;;;;;;;2.07;2.00;;;9.00;99.90;;;;;;5053166;28;20404;-68
2022/02/21 00:19:54;;;;;;;6.10;2.33;;;8.90;99.90;;;;;;5051792;28;20456;-69
2022/02/21 00:22:19;;;;;;;2.07;1.97;;;9.00;99.90;;;;;;5053140;28;20174;-68
2022/02/21 00:24:45;;;;;;;2.77;2.10;;;9.00;99.90;;;;;;5051579;28;20204;-68
2022/02/21 00:27:11;;;;;;;2.30;1.97;;;8.90;99.90;;;;;;5053255;28;20220;-68
2022/02/21 00:29:37;;;;;;;2.27;1.90;;;9.00;99.90;;;;;;5052473;28;20223;-76
2022/02/21 00:32:03;;;;;;;7.50;2.73;;;8.90;99.90;;;;;;5052763;28;20186;-68
2022/02/21 00:34:28;;;;;;;2.57;2.37;;;8.90;99.90;;;;;;5052479;28;20420;-68
2022/02/21 00:36:54;;;;;;;3.53;2.50;;;9.00;99.90;;;;;;5051893;28;20427;-68
2022/02/21 00:39:21;;;;;;;2.87;2.67;;;9.00;99.90;;;;;;5052429;28;20180;-68
2022/02/21 00:41:47;;;;;;;5.30;2.30;;;8.90;99.90;;;;;;5050382;28;20186;-69
2022/02/21 00:44:13;;;;;;;3.37;2.90;;;8.90;99.90;;;;;;5052216;28;20443;-68
2022/02/21 00:46:38;;;;;;;4.23;2.90;;;8.90;99.90;;;;;;5051987;28;20237;-76
2022/02/21 00:49:05;;;;;;;3.70;2.93;;;8.90;99.90;;;;;;5052404;28;20530;-68
2022/02/21 00:51:31;;;;;;;3.40;3.10;;;8.90;99.90;;;;;;5052508;28;20177;-68
2022/02/21 00:53:57;;;;;;;3.73;3.53;;;8.90;99.90;;;;;;5051382;28;20491;-69
2022/02/21 00:56:23;;;;;;;2.83;2.63;;;8.90;99.90;;;;;;5052340;28;20888;-70
2022/02/21 00:58:48;;;;;;;4.87;3.03;;;8.90;99.90;;;;;;5051288;28;20177;-68
2022/02/21 01:01:14;;;;;;;4.97;3.27;;;8.90;99.90;;;;;;5052411;28;20773;-68
2022/02/21 01:03:40;;;;;;;4.77;2.93;;;8.90;99.90;;;;;;5049754;28;20185;-75
2022/02/21 01:06:06;;;;;;;5.87;3.27;;;9.00;99.90;;;;;;5051876;28;20205;-68
2022/02/21 01:08:31;;;;;;;3.73;3.33;;;8.90;99.90;;;;;;5050880;28;20178;-68
2022/02/21 01:11:00;;;;;;;2.83;2.70;;;8.90;99.90;;;;;;5050189;28;20209;-68
2022/02/21 01:13:25;;;;;;;4.90;3.37;;;8.90;99.90;;;;;;5052167;28;20181;-68
2022/02/21 01:15:53;;;;;;;5.13;2.83;;;8.80;99.90;;;;;;5050051;28;20411;-68
2022/02/21 01:18:20;;;;;;;9.33;3.33;;;8.80;99.90;;;;;;5051833;28;20664;-68
2022/02/21 01:20:46;;;;;;;6.63;2.80;;;8.80;99.90;;;;;;5051320;28;20459;-69
2022/02/21 01:23:12;;;;;;;4.90;2.83;;;8.80;99.90;;;;;;5052108;28;20749;-68
2022/02/21 01:25:37;;;;;;;3.47;2.97;;;8.80;99.90;;;;;;5051469;28;20459;-76
2022/02/21 01:28:03;;;;;;;4.23;3.40;;;8.80;99.90;;;;;;5052009;28;20618;-68
2022/02/21 01:30:29;;;;;;;5.67;2.50;;;8.80;99.90;;;;;;5051603;28;20174;-71
2022/02/21 01:32:55;;;;;;;5.83;2.27;;;8.80;99.90;;;;;;5051114;28;20419;-68
2022/02/21 01:35:21;;;;;;;4.70;2.50;;;8.70;99.90;;;;;;5053288;28;20645;-68
2022/02/21 01:37:46;;;;;;;4.23;2.50;;;8.50;99.90;;;;;;5052211;28;20174;-69
2022/02/21 01:40:13;;;;;;;2.63;2.43;;;8.80;99.90;;;;;;5051792;28;20532;-68
2022/02/21 01:42:39;;;;;;;6.53;2.30;;;8.70;99.90;;;;;;5051449;28;20528;-76
2022/02/21 01:45:06;;;;;;;4.30;2.50;;;8.80;99.90;;;;;;5052033;28;20413;-68
2022/02/21 01:47:32;;;;;;;5.70;2.50;;;8.80;99.90;;;;;;5050739;28;20412;-68
2022/02/21 01:49:58;;;;;;;2.80;2.03;;;8.90;99.90;;;;;;5049561;28;20426;-68
2022/02/21 01:52:23;;;;;;;2.33;2.23;;;8.90;99.90;;;;;;5051036;28;20413;-71
2022/02/21 01:54:50;;;;;;;4.30;2.27;;;8.80;99.90;;;;;;5048488;28;20411;-69
2022/02/21 01:57:16;;;;;;;3.90;2.57;;;8.80;99.90;;;;;;5050243;28;20176;-69
2022/02/21 01:59:42;;;;;;;3.43;2.20;;;8.90;99.90;;;;;;5048501;28;20408;-70
2022/02/21 02:02:08;;;;;;;4.70;2.67;;;8.80;99.90;;;;;;5050624;28;20440;-69
2022/02/21 02:04:35;;;;;;;6.23;2.47;;;8.70;99.90;;;;;;5049265;28;20419;-68
2022/02/21 02:07:02;;;;;;;3.17;2.63;;;8.70;99.90;;;;;;5049331;28;20574;-69
2022/02/21 02:09:28;;;;;;;4.27;2.50;;;8.60;99.90;;;;;;5032230;28;20427;-69
2022/02/21 02:11:54;;;;;;;3.03;2.43;;;8.60;99.90;;;;;;5049461;28;20781;-69
2022/02/21 02:14:26;;;;;;;3.23;2.30;;;8.60;99.90;;;;;;5052176;28;20448;-69
2022/02/21 02:16:52;;;;;;;3.40;2.50;;;9.00;99.90;;;;;;5051298;28;20230;-69
2022/02/21 02:19:18;;;;;;;3.93;2.40;;;8.80;99.90;;;;;;5054357;28;20432;-69
2022/02/21 02:21:50;;;;;;;3.07;2.80;;;8.80;99.90;;;;;;5051698;28;20448;-69
2022/02/21 02:24:15;;;;;;;4.10;2.67;;;8.70;99.90;;;;;;5053828;28;20629;-69
2022/02/21 02:26:41;;;;;;;10.70;3.00;;;8.60;99.90;;;;;;5051854;28;20455;-76
2022/02/21 02:29:06;;;;;;;7.10;2.57;;;8.60;99.90;;;;;;5053813;28;20207;-68
2022/02/21 02:31:32;;;;;;;4.87;2.80;;;8.60;99.90;;;;;;5053841;28;20180;-69
2022/02/21 02:33:58;;;;;;;5.07;2.50;;;8.50;99.90;;;;;;5052855;28;20290;-68
2022/02/21 02:36:24;;;;;;;5.07;2.40;;;8.50;99.90;;;;;;5053696;28;20181;-68
2022/02/21 02:38:49;;;;;;;11.50;2.80;;;8.40;99.90;;;;;;5053060;28;20440;-68
2022/02/21 02:41:15;;;;;;;6.23;2.70;;;8.40;99.90;;;;;;5053183;28;20200;-69
2022/02/21 02:43:41;;;;;;;2.97;2.67;;;8.30;99.90;;;;;;5053122;28;20293;-76
2022/02/21 02:46:07;;;;;;;6.53;3.10;;;8.30;99.90;;;;;;5052972;28;20209;-69
2022/02/21 02:48:33;;;;;;;7.70;2.70;;;8.30;99.90;;;;;;5050688;28;20536;-69
2022/02/21 02:51:00;;;;;;;5.17;2.30;;;8.30;99.90;;;;;;5052528;28;20668;-69
2022/02/21 02:53:26;;;;;;;5.40;2.23;;;8.30;99.90;;;;;;5053176;28;20470;-69
2022/02/21 02:55:51;;;;;;;6.63;2.37;;;8.30;99.90;;;;;;5052088;28;20420;-71
2022/02/21 02:58:17;;;;;;;4.33;2.60;;;8.40;99.90;;;;;;5053461;28;20202;-68
2022/02/21 03:00:43;;;;;;;4.37;2.50;;;8.30;99.90;;;;;;5053473;28;20209;-69
2022/02/21 03:03:09;;;;;;;6.20;2.63;;;8.30;99.90;;;;;;5054667;28;20192;-68
2022/02/21 03:05:34;;;;;;;7.03;2.90;;;8.10;99.90;;;;;;5054054;28;20509;-68
2022/02/21 03:08:00;;;;;;;7.70;2.90;;;8.10;99.90;;;;;;5053331;28;20196;-69
2022/02/21 03:10:26;;;;;;;4.57;2.83;;;8.10;99.90;;;;;;5053951;28;20185;-68
2022/02/21 03:12:51;;;;;;;9.50;3.07;;;8.10;99.90;;;;;;5051829;28;20257;-69
2022/02/21 03:15:17;;;;;;;8.40;2.43;;;8.10;99.90;;;;;;5053496;28;20181;-68
2022/02/21 03:17:43;;;;;;;4.70;2.97;;;8.00;99.90;;;;;;5052951;28;20181;-75
2022/02/21 03:20:10;;;;;;;5.93;2.60;;;8.00;99.90;;;;;;5053404;28;20898;-73
2022/02/21 03:22:36;;;;;;;11.30;4.87;;;8.00;99.90;;;;;;5053200;28;20185;-67
2022/02/21 03:25:01;;;;;;;5.70;2.83;;;8.10;99.90;;;;;;5053004;28;20408;-67
2022/02/21 03:27:27;;;;;;;8.43;3.00;;;8.00;99.90;;;;;;5053960;28;20189;-66
2022/02/21 03:29:53;;;;;;;6.40;2.60;;;7.90;99.70;;;;;;5052799;28;20908;-67
2022/02/21 03:32:18;;;;;;;7.43;2.67;;;8.00;99.20;;;;;;5053885;28;20188;-66
2022/02/21 03:34:44;;;;;;;6.87;2.97;;;8.00;99.90;;;;;;5052848;28;20196;-71
2022/02/21 03:37:10;;;;;;;4.47;2.77;;;8.10;99.10;;;;;;5053887;28;20184;-66
2022/02/21 03:39:35;;;;;;;5.87;2.53;;;8.00;98.60;;;;;;5052764;28;20207;-67
2022/02/21 03:42:01;;;;;;;6.60;3.00;;;8.00;99.00;;;;;;5051845;28;20182;-67
2022/02/21 03:44:27;;;;;;;6.10;2.80;;;8.00;99.10;;;;;;5052567;28;20181;-66
2022/02/21 03:46:53;;;;;;;7.80;3.00;;;8.00;98.60;;;;;;5052617;28;20209;-66
2022/02/21 03:49:18;;;;;;;4.93;3.20;;;8.00;99.70;;;;;;5053710;28;20224;-66
2022/02/21 03:51:44;;;;;;;8.60;3.30;;;8.00;99.90;;;;;;5051564;28;20269;-79
2022/02/21 03:54:10;;;;;;;5.20;2.60;;;8.00;99.90;;;;;;5052941;28;20185;-66
2022/02/21 03:56:36;;;;;;;2.93;2.37;;;7.80;99.90;;;;;;5053166;28;20200;-66
2022/02/21 03:59:02;;;;;;;4.70;2.83;;;7.80;99.90;;;;;;5052374;28;20575;-66
2022/02/21 04:01:29;;;;;;;8.13;3.17;;;7.70;99.90;;;;;;5052893;28;20423;-67
2022/02/21 04:03:54;;;;;;;3.63;2.93;;;7.50;99.90;;;;;;5052428;28;20423;-68
2022/02/21 04:06:20;;;;;;;6.23;3.00;;;7.40;99.90;;;;;;5053193;28;20465;-67
2022/02/21 04:08:46;;;;;;;5.00;2.80;;;7.20;99.90;;;;;;5052250;28;20202;-79
2022/02/21 04:11:12;;;;;;;7.37;2.80;;;7.10;99.90;;;;;;5052907;28;20429;-67
2022/02/21 04:13:37;;;;;;;3.53;3.23;;;7.10;99.90;;;;;;5053589;28;20198;-69
2022/02/21 04:16:03;;;;;;;3.50;2.53;;;7.10;99.90;;;;;;5052529;28;20183;-67
2022/02/21 04:18:29;;;;;;;3.97;3.10;;;7.00;99.90;;;;;;5051206;28;20519;-68
2022/02/21 04:20:55;;;;;;;5.40;3.10;;;7.00;99.90;;;;;;5051654;28;20458;-68
2022/02/21 04:23:21;;;;;;;5.73;3.00;;;7.00;99.90;;;;;;5051464;28;20644;-67
2022/02/21 04:25:47;;;;;;;5.30;3.07;;;6.90;99.90;;;;;;5052050;28;20685;-78
2022/02/21 04:28:17;;;;;;;8.33;3.53;;;7.00;99.90;;;;;;5052709;28;20422;-68
2022/02/21 04:30:43;;;;;;;7.50;2.77;;;7.00;99.90;;;;;;5052998;28;20237;-77
2022/02/21 04:33:09;;;;;;;7.90;2.80;;;6.90;99.90;;;;;;5034628;28;20523;-68
2022/02/21 04:35:35;;;;;;;4.90;2.63;;;6.90;99.90;;;;;;5051053;28;21060;-68
2022/02/21 04:38:00;;;;;;;5.17;2.90;;;6.80;99.90;;;;;;5051429;28;20228;-68
2022/02/21 04:40:28;;;;;;;6.23;2.73;;;7.00;99.90;;;;;;5052244;28;20184;-68
2022/02/21 04:42:54;;;;;;;5.30;4.10;;;7.00;99.90;;;;;;5051985;28;20194;-68
2022/02/21 04:45:21;;;;;;;5.07;1.90;;;7.00;99.90;;;;;;5053010;28;20453;-68
2022/02/21 04:47:47;;;;;;;7.33;2.63;;;7.10;99.90;;;;;;5052432;28;20491;-68
2022/02/21 04:50:13;;;;;;;6.30;4.87;;;7.10;99.90;;;;;;5052653;28;20976;-68
2022/02/21 04:52:40;;;;;;;3.80;2.00;;;7.00;99.90;;;;;;5052674;28;20383;-68
2022/02/21 04:55:07;;;;;;;3.03;2.13;;;7.00;99.90;;;;;;5052334;28;20418;-68
2022/02/21 04:57:33;;;;;;;4.33;2.37;;;6.90;99.90;;;;;;5052397;28;20495;-67
2022/02/21 05:00:00;;;;;;;3.73;2.70;;;6.90;99.90;;;;;;5052158;28;20488;-68
2022/02/21 05:02:25;;;;;;;2.67;2.33;;;6.60;99.90;;;;;;5052879;28;20755;-67
2022/02/21 05:04:52;;;;;;;3.70;2.93;;;6.70;99.90;;;;;;5052237;28;20430;-68
2022/02/21 05:07:18;;;;;;;8.20;3.50;;;6.70;99.90;;;;;;5051941;28;20583;-68
2022/02/21 05:09:44;;;;;;;4.27;3.77;;;6.40;99.90;;;;;;5051505;28;20424;-68
2022/02/21 05:12:09;;;;;;;3.43;2.73;;;6.50;99.90;;;;;;5051759;28;20493;-68
2022/02/21 05:14:35;;;;;;;3.20;2.10;;;6.50;99.90;;;;;;5052598;28;20646;-68
2022/02/21 05:17:01;;;;;;;7.83;2.30;;;6.40;99.90;;;;;;5051992;28;20179;-68
2022/02/21 05:19:27;;;;;;;2.47;1.93;;;6.40;99.90;;;;;;5052489;28;20225;-67
2022/02/21 05:21:55;;;;;;;5.13;3.13;;;6.40;99.90;;;;;;5050507;28;20916;-68
2022/02/21 05:24:20;;;;;;;8.53;3.10;;;6.10;99.90;;;;;;5051907;28;20898;-68
2022/02/21 05:26:46;;;;;;;5.53;2.60;;;6.30;99.90;;;;;;5051861;28;20456;-86
2022/02/21 05:29:12;;;;;;;7.47;3.07;;;6.30;99.90;;;;;;5052753;28;20481;-67
2022/02/21 05:31:38;;;;;;;6.13;2.57;;;6.20;99.90;;;;;;5052493;28;20435;-68
2022/02/21 05:34:04;;;;;;;6.13;2.60;;;6.20;99.90;;;;;;5051554;28;20244;-67
2022/02/21 05:36:29;;;;;;;4.93;2.73;;;6.40;99.90;;;;;;5052213;28;20207;-67
2022/02/21 05:38:55;;;;;;;4.23;2.97;;;6.40;99.90;;;;;;5051857;28;20186;-68
2022/02/21 05:41:21;;;;;;;5.87;2.83;;;6.40;99.90;;;;;;5052133;28;20262;-68
2022/02/21 05:43:46;;;;;;;3.80;2.13;;;6.50;99.90;;;;;;5052535;28;20174;-68
2022/02/21 05:46:18;;;;;;;4.43;2.77;;;6.60;99.90;;;;;;5051508;28;20203;-68
2022/02/21 05:48:44;;;;;;;7.53;2.97;;;6.60;99.90;;;;;;5054135;28;20236;-68
2022/02/21 05:51:10;;;;;;;5.73;3.13;;;6.40;99.90;;;;;;5055413;28;20419;-67
2022/02/21 05:53:36;;;;;;;5.87;4.50;;;6.80;99.90;;;;;;5054911;28;20186;-68
2022/02/21 05:56:02;;;;;;;3.50;2.20;;;6.70;99.90;;;;;;5055074;28;20178;-68
2022/02/21 05:58:28;;;;;;;5.20;4.27;;;6.70;99.90;;;;;;5056386;28;20471;-68
2022/02/21 06:00:55;;;;;;;3.30;3.10;;;6.70;99.90;;;;;;5054489;28;20829;-69
2022/02/21 06:03:21;;;;;;;4.53;2.23;;;6.70;99.90;;;;;;5055688;28;20175;-67
2022/02/21 06:05:47;;;;;;;5.30;2.20;;;6.70;99.90;;;;;;5055338;28;20533;-68
2022/02/21 06:08:13;;;;;;;5.87;3.20;;;6.80;99.90;;;;;;5054591;28;20682;-68
2022/02/21 06:10:39;;;;;;;5.77;4.40;;;6.80;99.90;;;;;;5054342;28;20180;-68
2022/02/21 06:13:05;;;;;;;7.73;3.40;;;6.40;99.90;;;;;;5054820;28;20415;-68
2022/02/21 06:15:32;;;;;;;6.27;2.90;;;6.70;99.90;;;;;;5055537;28;20549;-68
2022/02/21 06:17:58;;;;;;;9.30;5.17;;;6.80;99.90;;;;;;5055281;28;20414;-68
2022/02/21 06:20:25;;;;;;;5.97;2.70;;;6.80;99.90;;;;;;5055480;28;20849;-68
2022/02/21 06:22:51;;;;;;;6.77;2.73;;;6.70;99.90;;;;;;5055169;28;20430;-68
2022/02/21 06:25:17;;;;;;;6.80;3.20;;;6.80;99.90;;;;;;5055700;28;20774;-68
2022/02/21 06:27:43;;;;;;;4.23;2.53;;;6.80;99.90;;;;;;5055598;28;20179;-68
2022/02/21 06:30:10;;;;;;;4.93;4.53;;;6.70;99.90;;;;;;5053923;28;20194;-68
2022/02/21 06:32:36;;;;;;;5.10;2.43;;;6.60;99.90;;;;;;5053125;28;20194;-68
2022/02/21 06:35:02;;;;;;;6.27;4.60;;;6.60;99.90;;;;;;5055200;28;20417;-68
2022/02/21 06:37:27;;;;;;;3.17;2.90;;;6.60;99.90;;;;;;5055467;28;20227;-67
2022/02/21 06:39:53;;;;;;;6.83;3.97;;;6.70;99.90;;;;;;5054480;28;20405;-68
2022/02/21 06:42:19;;;;;;;4.50;2.70;;;6.60;99.90;;;;;;5055623;28;20608;-68
2022/02/21 06:44:45;;;;;;;5.27;4.90;;;6.10;99.90;;;;;;5055140;28;20182;-67
2022/02/21 06:47:10;;;;;;;6.97;3.90;;;6.50;99.90;;;;;;5054535;28;20508;-67
2022/02/21 06:49:36;;;;;;;3.63;3.33;;;6.50;99.90;;;;;;5055183;28;20257;-68
2022/02/21 06:52:02;;;;;;;3.47;2.70;;;6.60;99.90;;;;;;5054852;28;20196;-68
2022/02/21 06:54:28;;;;;;;2.30;2.10;;;6.50;99.90;;;;;;5055386;28;20414;-68
2022/02/21 06:56:53;;;;;;;5.23;3.60;;;6.60;99.90;;;;;;5053298;28;20412;-68
2022/02/21 06:59:19;;;;;;;6.33;3.07;;;6.60;99.90;;;;;;5054887;28;20638;-68
2022/02/21 07:01:45;;;;;;;5.00;4.60;;;6.60;99.90;;;;;;5036021;28;20207;-68
2022/02/21 07:04:11;;;;;;;3.27;2.53;;;6.70;99.90;;;;;;5053391;28;20191;-68
2022/02/21 07:06:36;;;;;;;5.70;2.03;;;6.60;99.90;;;;;;5054039;28;20277;-68
2022/02/21 07:09:05;;;;;;;5.40;4.90;;;6.80;99.90;;;;;;5051446;28;20186;-68
2022/02/21 07:11:31;;;;;;;4.57;2.97;;;6.70;99.90;;;;;;5053275;28;20318;-67
2022/02/21 07:13:57;;;;;;;3.70;2.33;;;6.70;99.90;;;;;;5052942;28;20522;-68
2022/02/21 07:16:23;;;;;;;5.37;3.53;;;6.80;99.90;;;;;;5053461;28;20182;-73
2022/02/21 07:18:48;;;;;;;2.87;2.50;;;6.80;99.90;;;;;;5053973;28;20174;-68
2022/02/21 07:21:14;;;;;;;5.37;4.27;;;6.90;99.90;;;;;;5052018;28;20468;-68
2022/02/21 07:23:40;;;;;;;4.87;2.40;;;6.80;99.90;;;;;;5053140;28;20405;-67
2022/02/21 07:26:06;;;;;;;3.73;3.30;;;6.70;99.90;;;;;;5059541;28;20273;-68
2022/02/21 07:28:32;;;;;;;7.33;4.50;;;6.80;99.90;;;;;;5052622;28;20591;-68
2022/02/21 07:30:58;;;;;;;4.57;4.20;;;6.90;99.90;;;;;;5051568;28;20443;-68
2022/02/21 07:33:23;;;;;;;3.80;3.60;;;6.80;99.90;;;;;;5054141;28;20535;-67
2022/02/21 07:35:49;;;;;;;4.60;2.70;;;6.80;99.90;;;;;;5054229;28;20502;-67
2022/02/21 07:38:15;;;;;;;3.67;3.37;;;6.90;99.90;;;;;;5052868;28;20180;-67
2022/02/21 07:40:41;;;;;;;3.63;3.23;;;6.80;99.90;;;;;;5056398;28;20265;-67
2022/02/21 07:43:08;;;;;;;5.50;4.20;;;6.40;99.90;;;;;;5053421;28;20270;-68
2022/02/21 07:45:34;;;;;;;6.20;2.80;;;6.80;99.90;;;;;;5057632;28;20502;-67
2022/02/21 07:48:03;;;;;;;3.53;3.23;;;6.80;99.90;;;;;;5052899;28;20778;-69
2022/02/21 07:50:30;;;;;;;2.43;2.23;;;6.80;99.90;;;;;;5053312;28;20186;-67
2022/02/21 07:52:59;;;;;;;4.03;3.63;;;6.70;99.90;;;;;;5053321;28;20468;-75
2022/02/21 07:55:26;;;;;;;8.37;3.67;;;6.60;99.90;;;;;;5053517;28;20415;-68
2022/02/21 07:57:52;;;;;;;5.07;4.60;;;6.60;99.90;;;;;;5053404;28;20410;-68
2022/02/21 08:00:18;;;;;;;4.40;4.00;;;6.70;99.90;;;;;;5052694;28;20847;-68
2022/02/21 08:02:44;;;;;;;5.53;3.83;;;6.70;99.90;;;;;;5054015;28;20204;-67
2022/02/21 08:05:10;;;;;;;6.77;4.37;;;6.80;99.90;;;;;;5053148;28;20426;-68
2022/02/21 08:07:37;;;;;;;5.97;3.10;;;6.80;99.90;;;;;;5053385;28;20191;-68
2022/02/21 08:10:04;;;;;;;6.83;4.07;;;6.80;99.90;;;;;;5052934;28;20424;-68
2022/02/21 08:12:31;;;;;;;5.37;2.40;;;6.80;99.90;;;;;;5052377;28;20475;-68
2022/02/21 08:14:57;;;;;;;6.60;3.43;;;6.80;99.90;;;;;;5050934;28;20778;-72
2022/02/21 08:17:23;;;;;;;5.67;3.90;;;6.80;99.90;;;;;;5052043;28;20441;-69
2022/02/21 08:19:49;;;;;;;5.30;3.23;;;6.80;99.90;;;;;;5051957;28;20933;-69
2022/02/21 08:22:14;;;;;;;5.73;3.80;;;6.80;99.90;;;;;;5052167;28;20421;-67
2022/02/21 08:24:40;;;;;;;6.33;2.50;;;6.80;99.90;;;;;;5053289;28;20632;-67
2022/02/21 08:27:06;;;;;;;6.50;3.30;;;6.90;99.90;;;;;;5051974;28;20211;-68
2022/02/21 08:29:34;;;;;;;3.37;2.97;;;6.90;99.90;;;;;;5051749;28;20196;-67
2022/02/21 08:32:00;;;;;;;4.30;2.83;;;7.00;99.90;;;;;;5051501;28;20203;-68
2022/02/21 08:34:28;;;;;;;5.83;3.70;;;7.00;99.90;;;;;;5053198;28;20441;-68
2022/02/21 08:36:53;;;;;;;6.57;2.97;;;7.00;99.90;;;;;;5052613;28;20187;-67
2022/02/21 08:39:19;;;;;;;4.70;3.20;;;7.00;99.90;;;;;;5052564;28;20417;-67
2022/02/21 08:41:45;;;;;;;6.70;3.50;;;6.80;99.90;;;;;;5051749;28;20662;-67
2022/02/21 08:44:10;;;;;;;3.80;3.33;;;7.10;99.80;;;;;;5052472;28;20221;-68
2022/02/21 08:46:36;;;;;;;5.30;3.40;;;6.80;99.90;;;;;;5053090;28;20290;-68
2022/02/21 08:49:04;;;;;;;3.53;3.10;;;7.20;99.60;;;;;;5052482;28;20207;-68
2022/02/21 08:51:30;;;;;;;5.13;3.80;;;7.20;99.90;;;;;;5053209;28;20875;-67
2022/02/21 08:53:56;;;;;;;4.90;3.60;;;7.20;99.10;;;;;;5051648;28;20418;-67
2022/02/21 08:56:22;;;;;;;4.10;3.23;;;7.20;98.40;;;;;;5050879;28;20173;-68
2022/02/21 08:58:48;;;;;;;8.50;3.93;;;7.00;98.40;;;;;;5052449;28;20480;-70
2022/02/21 09:01:13;;;;;;;6.23;4.10;;;7.40;99.90;;;;;;5049971;28;20188;-71
2022/02/21 09:03:41;;;;;;;4.80;3.40;;;7.90;99.90;;;;;;5052337;28;20493;-71
2022/02/21 09:06:08;;;;;;;6.70;4.63;;;8.20;99.90;;;;;;5051237;28;20205;-71
2022/02/21 09:08:34;;;;;;;5.57;4.33;;;8.70;99.90;;;;;;5034479;28;20415;-70
2022/02/21 09:11:01;;;;;;;6.47;3.10;;;9.20;99.90;;;;;;5051311;28;20434;-72
2022/02/21 09:13:27;;;;;;;4.40;3.93;;;9.50;98.40;;;;;;5051693;28;20192;-71
2022/02/21 09:15:53;;;;;;;8.37;3.10;;;10.00;99.90;;;;;;5052224;28;20430;-71
2022/02/21 09:18:18;;;;;;;4.63;4.13;;;10.00;98.30;;;;;;5050901;28;20475;-71
2022/02/21 09:20:45;;;;;;;4.70;3.03;;;10.20;94.70;;;;;;5052142;28;20216;-71
2022/02/21 09:23:11;;;;;;;4.67;3.70;;;10.20;94.10;;;;;;5050013;28;20188;-71
2022/02/21 09:25:36;;;;;;;3.97;2.80;;;10.50;95.30;;;;;;5050649;28;20448;-72
2022/02/21 09:28:02;;;;;;;4.50;2.73;;;10.70;95.30;;;;;;5050515;28;20278;-72
2022/02/21 09:30:28;;;;;;;4.67;4.03;;;10.90;92.90;;;;;;5050516;28;20627;-73
2022/02/21 09:32:55;;;;;;;3.93;3.17;;;11.00;92.80;;;;;;5050251;28;20427;-71
2022/02/21 09:35:22;;;;;;;3.97;3.17;;;11.00;91.10;;;;;;5046353;28;20184;-71
2022/02/21 09:37:48;;;;;;;3.80;2.80;;;10.90;90.40;;;;;;5051008;28;20521;-71
2022/02/21 09:40:14;;;;;;;5.03;2.30;;;10.90;91.30;;;;;;5048290;28;20457;-71
2022/02/21 09:42:42;;;;;;;2.87;2.40;;;11.00;92.00;;;;;;5051957;28;20414;-71
2022/02/21 09:45:09;;;;;;;6.03;3.00;;;11.20;92.90;;;;;;5051680;28;20745;-71
2022/02/21 09:47:35;;;;;;;5.87;2.50;;;11.10;90.20;;;;;;5051894;28;20415;-71
2022/02/21 09:50:01;;;;;;;4.57;2.80;;;11.10;89.30;;;;;;5051156;28;20427;-77
2022/02/21 09:52:28;;;;;;;7.63;3.43;;;11.20;88.90;;;;;;5050559;28;20416;-69
2022/02/21 09:54:54;;;;;;;4.93;2.40;;;11.00;84.90;;;;;;5051596;28;20424;-69
2022/02/21 09:57:21;;;;;;;3.83;3.43;;;10.60;84.80;;;;;;5049389;28;20766;-68
2022/02/21 09:59:47;;;;;;;7.30;2.63;;;10.10;86.90;;;;;;5051447;28;20412;-68
2022/02/21 10:02:33;;;;;;;3.00;2.27;;;9.80;89.60;;;;;;5049523;28;20436;-69
2022/02/21 10:05:21;;;;;;;5.67;3.40;;;9.60;90.80;;;;;;5048445;28;20435;-68
2022/02/21 10:07:47;;;;;;;6.50;2.60;;;9.20;91.30;;;;;;5050314;28;20859;-68
2022/02/21 10:10:17;;;;;;;5.00;2.83;;;9.10;92.60;;;;;;5051234;28;20428;-68
2022/02/21 10:12:57;;;;;;;11.57;3.47;;;9.00;92.20;;;;;;5052218;28;20873;-68
2022/02/21 10:15:25;;;;;;;6.60;4.17;;;8.80;92.70;;;;;;5051072;28;20431;-68
2022/02/21 10:18:12;;;;;;;7.23;3.27;;;8.80;93.10;;;;;;5050779;28;20455;-68
2022/02/21 10:20:54;;;;;;;4.60;4.20;;;8.60;93.00;;;;;;5048482;28;20451;-68
2022/02/21 10:23:20;;;;;;;4.37;2.63;;;8.60;93.60;;;;;;5051282;28;20492;-68
2022/02/21 10:26:04;;;;;;;4.10;2.90;;;8.60;93.80;;;;;;5050886;28;20464;-67
2022/02/21 10:28:47;;;;;;;4.33;2.40;;;8.50;94.90;;;;;;5051661;28;20197;-68
2022/02/21 10:31:19;;;;;;;6.23;2.90;;;8.40;95.00;;;;;;5050286;28;20423;-68
2022/02/21 10:34:07;;;;;;;3.80;3.50;;;8.40;95.20;;;;;;5047754;28;20431;-68
2022/02/21 10:36:35;;;;;;;4.37;3.77;;;8.30;96.20;;;;;;5051456;28;20760;-68
2022/02/21 10:39:04;;;;;;;7.27;2.30;;;8.20;97.00;;;;;;5052543;28;20450;-68
2022/02/21 10:41:45;;;;;;;3.90;2.90;;;8.20;97.20;;;;;;5054541;28;20515;-67
2022/02/21 10:44:35;;;;;;;3.20;2.90;;;8.10;97.40;;;;;;5054551;28;20413;-68
2022/02/21 10:47:11;;;;;;;4.30;3.90;;;8.10;97.50;;;;;;5054939;28;20448;-68
2022/02/21 10:49:49;;;;;;;6.77;3.30;;;8.00;98.10;;;;;;5054248;28;20481;-67
2022/02/21 10:52:18;;;;;;;7.07;2.87;;;8.00;98.40;;;;;;5054699;28;20395;-67
2022/02/21 10:54:45;;;;;;;6.23;3.20;;;7.80;98.80;;;;;;5053348;28;20422;-70
2022/02/21 10:57:12;;;;;;;10.47;3.53;;;7.80;99.80;;;;;;5053272;28;20770;-68
2022/02/21 10:59:38;;;;;;;5.33;2.80;;;7.90;99.90;;;;;;5054705;28;20511;-67
2022/02/21 11:02:07;;;;;;;4.60;2.97;;;7.90;99.90;;;;;;5053768;28;20919;-68
2022/02/21 11:04:36;;;;;;;6.27;3.87;;;7.80;99.90;;;;;;5049858;28;20946;-68
2022/02/21 11:07:02;;;;;;;6.43;3.17;;;7.70;99.90;;;;;;5054186;28;20451;-69
2022/02/21 11:09:29;;;;;;;6.80;2.87;;;7.70;99.90;;;;;;5053430;28;20479;-67
2022/02/21 11:11:57;;;;;;;3.50;3.13;;;7.60;99.90;;;;;;5054033;28;20422;-67
2022/02/21 11:14:29;;;;;;;3.87;3.57;;;7.40;99.90;;;;;;5052698;28;20925;-67
2022/02/21 11:16:57;;;;;;;8.87;3.30;;;7.40;99.90;;;;;;5053311;28;20472;-68
2022/02/21 11:19:23;;;;;;;4.33;2.70;;;7.40;99.90;;;;;;5053411;28;20470;-67
2022/02/21 11:21:50;;;;;;;8.50;2.33;;;7.40;99.90;;;;;;5053841;28;20977;-67
2022/02/21 11:24:24;;;;;;;3.20;2.83;;;7.40;99.90;;;;;;5053860;28;20479;-67
2022/02/21 11:27:05;;;;;;;3.37;2.90;;;7.40;99.90;;;;;;5054676;28;20444;-66
2022/02/21 11:29:38;;;;;;;3.70;3.40;;;7.30;99.90;;;;;;5054340;28;20417;-66
2022/02/21 11:32:04;;;;;;;5.90;4.43;;;7.20;99.90;;;;;;5053899;28;20521;-69
2022/02/21 11:34:30;;;;;;;7.50;3.70;;;7.20;99.90;;;;;;5054126;28;20870;-67
2022/02/21 11:36:59;;;;;;;3.40;2.67;;;7.10;99.90;;;;;;5053611;28;20422;-66
2022/02/21 11:39:28;;;;;;;7.13;3.50;;;7.00;99.90;;;;;;5051838;28;20235;-66
2022/02/21 11:42:16;;;;;;;5.77;3.53;;;6.50;99.90;;;;;;5053857;28;20922;-67
2022/02/21 11:44:51;;;;;;;4.87;3.40;;;7.00;99.90;;;;;;5053660;28;20431;-67
2022/02/21 11:47:42;;;;;;;5.57;3.10;;;6.90;99.90;;;;;;5052706;28;20495;-66
2022/02/21 11:50:17;;;;;;;6.87;3.00;;;6.90;99.90;;;;;;5053158;28;20413;-67
2022/02/21 11:52:48;;;;;;;4.23;3.50;;;7.00;99.90;;;;;;5053942;28;20400;-67
2022/02/21 11:55:29;;;;;;;6.47;3.87;;;7.00;99.90;;;;;;5053241;28;20443;-67
2022/02/21 11:58:13;;;;;;;3.60;3.30;;;7.00;99.90;;;;;;5053362;28;20422;-67
2022/02/21 12:00:41;;;;;;;5.20;3.27;;;7.00;99.90;;;;;;5053494;28;20406;-67
2022/02/21 12:03:25;;;;;;;2.93;2.70;;;7.10;99.90;;;;;;5052984;28;20419;-67
2022/02/21 12:05:57;;;;;;;3.40;3.10;;;7.10;99.90;;;;;;5053704;28;20476;-66
2022/02/21 12:08:32;;;;;;;4.57;3.73;;;6.70;99.90;;;;;;5051697;28;20857;-67
2022/02/21 12:11:17;;;;;;;5.70;3.17;;;7.10;99.90;;;;;;5053513;28;20409;-67
2022/02/21 12:14:09;;;;;;;4.43;4.00;;;7.10;99.90;;;;;;5040359;28;20435;-67
2022/02/21 12:16:57;;;;;;;3.90;3.60;;;7.10;99.90;;;;;;5050387;28;20820;-67
2022/02/21 12:19:31;;;;;;;6.33;3.57;;;7.20;99.90;;;;;;5052768;28;20428;-67
2022/02/21 12:22:11;;;;;;;3.73;3.40;;;7.10;99.90;;;;;;5053353;28;20433;-67
2022/02/21 12:25:09;;;;;;;3.37;3.07;;;6.90;99.90;;;;;;5053515;28;20410;-67
2022/02/21 12:27:36;;;;;;;2.73;2.57;;;7.00;99.90;;;;;;5053147;28;20478;-71
2022/02/21 12:30:03;;;;;;;3.90;2.67;;;7.10;99.90;;;;;;5052590;28;20426;-67
2022/02/21 12:32:29;;;;;;;3.87;2.87;;;7.00;99.90;;;;;;5052429;28;20900;-67
2022/02/21 12:34:55;;;;;;;2.93;2.40;;;7.00;99.90;;;;;;5053359;28;20437;-68
2022/02/21 12:37:21;;;;;;;4.27;2.40;;;7.00;99.90;;;;;;5051263;28;20907;-68
2022/02/21 12:39:47;;;;;;;2.90;2.40;;;7.00;99.90;;;;;;5052690;28;20429;-68
2022/02/21 12:42:16;;;;;;;2.70;2.50;;;6.90;99.90;;;;;;5052069;28;20504;-68
2022/02/21 12:44:42;;;;;;;2.50;2.30;;;6.90;99.90;;;;;;5051969;28;20429;-66
2022/02/21 12:47:08;;;;;;;2.20;2.10;;;6.80;99.90;;;;;;5051484;28;20464;-75
2022/02/21 12:49:48;;;;;;;3.13;2.80;;;6.90;99.90;;;;;;5050744;28;20862;-67
2022/02/21 12:52:15;;;;;;;3.23;2.90;;;6.90;99.90;;;;;;5052257;28;20298;-68
2022/02/21 12:54:56;;;;;;;3.90;2.43;;;7.00;99.90;;;;;;5051539;28;20422;-67
2022/02/21 12:57:24;;;;;;;3.23;2.93;;;7.00;99.90;;;;;;5051015;28;20787;-67